Time;durP1;ratioP1;P1;durP2;ratioP2;P2;SDS_P1;SDS_P2;PMS_P1;PMS_P2;Temp;Humidity;BMP_temperature;BMP_pressure;BME280_temperature;BME280_humidity;BME280_pressure;Samples;Min_cycle;Max_cycle;Signal;HPM_P1;HPM_P2
2022/12/22 03:26:47;;;;;;;0.40;0.40;;;;;;;5.42;100.00;99282.59;5032154;28;20030;-74
2022/12/22 03:29:13;;;;;;;0.40;0.40;;;;;;;5.39;100.00;99283.78;5033053;28;20033;-74
2022/12/22 03:31:39;;;;;;;0.40;0.40;;;;;;;5.35;100.00;99285.16;4999268;28;20030;-75
2022/12/22 03:34:04;;;;;;;0.40;0.40;;;;;;;5.34;100.00;99283.50;5031444;28;20029;-74
2022/12/22 03:36:30;;;;;;;0.40;0.40;;;;;;;5.35;100.00;99289.69;4998923;28;20072;-74
2022/12/22 03:38:56;;;;;;;0.40;0.40;;;;;;;5.35;100.00;99273.69;5031130;28;20040;-74
2022/12/22 03:46:50;;;;;;;0.50;0.50;;;;;;;5.32;100.00;99274.00;5018166;28;20036;-74
2022/12/22 03:49:18;;;;;;;0.40;0.40;;;;;;;5.29;100.00;99276.06;4999072;28;20112;-74
2022/12/22 03:51:52;;;;;;;0.40;0.40;;;;;;;5.28;100.00;99277.03;5001659;28;20468;-75
2022/12/22 03:54:20;;;;;;;0.50;0.50;;;;;;;5.26;100.00;99289.72;5015514;28;20061;-74
2022/12/22 03:56:46;;;;;;;0.40;0.40;;;;;;;5.23;100.00;99287.41;5019038;28;20026;-75
2022/12/22 03:59:12;;;;;;;0.50;0.50;;;;;;;5.30;100.00;99300.88;5002470;28;20041;-75
2022/12/22 04:01:47;;;;;;;0.50;0.50;;;;;;;5.31;100.00;99307.84;5018865;28;20033;-75
2022/12/22 04:04:15;;;;;;;0.50;0.50;;;;;;;5.25;100.00;99300.56;5034970;28;20041;-75
2022/12/22 04:06:42;;;;;;;0.50;0.50;;;;;;;5.31;100.00;99315.84;5002564;28;20398;-75
2022/12/22 04:09:07;;;;;;;0.40;0.40;;;;;;;5.31;100.00;99320.34;5018539;28;20030;-74
2022/12/22 04:14:20;;;;;;;0.43;0.43;;;;;;;5.31;100.00;99312.34;5034768;28;20079;-75
2022/12/22 04:16:46;;;;;;;0.40;0.40;;;;;;;5.32;100.00;99324.66;5018360;28;20044;-74
2022/12/22 04:19:12;;;;;;;0.50;0.50;;;;;;;5.39;100.00;99322.94;5018386;28;20038;-74
2022/12/22 04:21:38;;;;;;;0.40;0.40;;;;;;;5.38;100.00;99318.63;5034522;28;20030;-75
2022/12/22 04:24:04;;;;;;;0.40;0.40;;;;;;;5.35;100.00;99313.66;5001767;28;20476;-75
2022/12/22 04:26:30;;;;;;;0.40;0.40;;;;;;;5.37;100.00;99316.97;5002107;28;20029;-75
2022/12/22 04:28:56;;;;;;;0.45;0.45;;;;;;;5.42;100.00;99319.91;5001669;28;20384;-75
2022/12/22 04:31:22;;;;;;;0.50;0.50;;;;;;;5.36;100.00;99320.63;5018292;28;20041;-75
2022/12/22 04:33:48;;;;;;;0.70;0.70;;;;;;;5.42;100.00;99342.06;5017656;28;20468;-75
2022/12/22 04:36:14;;;;;;;0.50;0.50;;;;;;;5.42;100.00;99342.06;5018019;28;20033;-74
2022/12/22 04:38:40;;;;;;;0.43;0.43;;;;;;;5.43;100.00;99349.06;5034349;28;20365;-76
2022/12/22 04:41:06;;;;;;;0.40;0.40;;;;;;;5.40;100.00;99345.91;5001679;28;20460;-74
2022/12/22 04:43:33;;;;;;;0.40;0.40;;;;;;;5.35;100.00;99351.81;5034149;28;20026;-74
2022/12/22 04:45:58;;;;;;;0.40;0.40;;;;;;;5.42;100.00;99354.56;5017900;28;20051;-75
2022/12/22 04:48:26;;;;;;;0.40;0.40;;;;;;;5.42;100.00;99355.41;5001726;28;20029;-75
2022/12/22 04:50:53;;;;;;;0.40;0.40;;;;;;;5.42;100.00;99351.91;5001654;28;20551;-75
2022/12/22 04:53:19;;;;;;;0.50;0.50;;;;;;;5.44;100.00;99355.22;5033841;28;20040;-75
2022/12/22 04:55:50;;;;;;;0.50;0.50;;;;;;;5.44;100.00;99350.72;5017728;28;20395;-75
2022/12/22 04:58:15;;;;;;;0.40;0.40;;;;;;;5.42;100.00;99360.72;5001554;28;20052;-74
2022/12/22 05:00:42;;;;;;;0.40;0.40;;;;;;;5.48;100.00;99360.03;5001501;28;20128;-75
2022/12/22 05:03:08;;;;;;;0.50;0.50;;;;;;;5.51;100.00;99375.69;5034120;28;20030;-74
2022/12/22 05:05:34;;;;;;;0.50;0.50;;;;;;;5.49;100.00;99372.34;5001288;28;20041;-74
2022/12/22 05:08:01;;;;;;;0.40;0.40;;;;;;;5.49;100.00;99379.53;5034080;28;20033;-74
2022/12/22 05:10:26;;;;;;;0.43;0.43;;;;;;;5.55;100.00;99383.31;5017191;28;20464;-75
2022/12/22 05:12:55;;;;;;;0.50;0.50;;;;;;;5.54;100.00;99371.81;5000992;28;20040;-75
2022/12/22 05:15:30;;;;;;;0.40;0.40;;;;;;;5.56;100.00;99380.50;5017854;28;20493;-75
2022/12/22 05:17:57;;;;;;;0.40;0.40;;;;;;;5.47;100.00;99365.53;5017555;28;20104;-74
2022/12/22 05:20:23;;;;;;;0.50;0.50;;;;;;;5.50;100.00;99381.19;5033604;28;20111;-76
2022/12/22 05:22:49;;;;;;;0.40;0.40;;;;;;;5.48;100.00;99383.22;5000292;28;20385;-75
2022/12/22 05:25:15;;;;;;;0.40;0.40;;;;;;;5.48;100.00;99393.88;5017190;28;20109;-75
2022/12/22 05:27:46;;;;;;;0.50;0.50;;;;;;;5.49;100.00;99388.34;5000972;28;20041;-75
2022/12/22 05:30:13;;;;;;;0.50;0.50;;;;;;;5.49;100.00;99382.19;5000959;28;20044;-76
2022/12/22 05:32:39;;;;;;;0.60;0.60;;;;;;;5.49;100.00;99385.69;5033131;28;20426;-75
2022/12/22 05:35:05;;;;;;;0.50;0.50;;;;;;;5.49;100.00;99379.53;5033464;28;20037;-75
2022/12/22 05:37:31;;;;;;;0.40;0.40;;;;;;;5.46;100.00;99367.38;5033457;28;20033;-76
2022/12/22 05:39:57;;;;;;;0.40;0.40;;;;;;;5.41;100.00;99367.09;5000709;28;20398;-75
2022/12/22 05:42:34;;;;;;;0.50;0.50;;;;;;;5.34;100.00;99371.44;5016357;28;20072;-76
2022/12/22 05:45:02;;;;;;;0.40;0.40;;;;;;;5.31;100.00;99368.31;5032919;28;20082;-76
2022/12/22 05:47:27;;;;;;;0.52;0.52;;;;;;;5.27;100.00;99376.66;5016776;28;20076;-76
2022/12/22 05:49:55;;;;;;;0.50;0.50;;;;;;;5.29;100.00;99369.34;5000414;28;20060;-75
2022/12/22 05:52:21;;;;;;;0.50;0.50;;;;;;;5.30;100.00;99359.50;5000569;28;20467;-75
2022/12/22 05:54:47;;;;;;;0.50;0.50;;;;;;;5.29;100.00;99357.81;5000569;28;20033;-75
2022/12/22 05:57:12;;;;;;;0.43;0.43;;;;;;;5.29;100.00;99363.16;5033026;28;20422;-75
2022/12/22 05:59:38;;;;;;;0.40;0.40;;;;;;;5.24;100.00;99363.69;5000080;28;20088;-75
2022/12/22 06:02:03;;;;;;;0.50;0.50;;;;;;;5.27;100.00;99366.00;5016737;28;20056;-75
2022/12/22 06:04:29;;;;;;;0.50;0.50;;;;;;;5.28;100.00;99364.16;4999902;28;20426;-76
2022/12/22 06:06:55;;;;;;;0.50;0.50;;;;;;;5.21;100.00;99345.41;5000151;28;20033;-75
2022/12/22 06:09:21;;;;;;;0.47;0.47;;;;;;;5.28;100.00;99361.50;5015958;28;20124;-76
2022/12/22 06:11:46;;;;;;;0.60;0.60;;;;;;;5.28;100.00;99367.66;5016098;28;20036;-75
2022/12/22 06:14:12;;;;;;;0.40;0.40;;;;;;;5.32;100.00;99364.63;4999896;28;20038;-75
2022/12/22 06:16:37;;;;;;;0.40;0.40;;;;;;;5.28;100.00;99361.50;4999901;28;20112;-76
2022/12/22 06:19:03;;;;;;;0.50;0.50;;;;;;;5.24;100.00;99355.69;5015375;28;20037;-75
2022/12/22 06:21:29;;;;;;;0.40;0.40;;;;;;;5.22;100.00;99365.69;5000080;28;20128;-76
2022/12/22 06:23:58;;;;;;;0.50;0.50;;;;;;;5.21;100.00;99360.53;5032341;28;20036;-75
2022/12/22 06:26:24;;;;;;;0.50;0.50;;;;;;;5.22;100.00;99362.22;5032565;28;20039;-75
2022/12/22 06:28:49;;;;;;;0.45;0.45;;;;;;;5.22;100.00;99359.53;4999857;28;20033;-76
2022/12/22 06:31:15;;;;;;;0.50;0.50;;;;;;;5.23;100.00;99358.53;5015873;28;20029;-75
2022/12/22 06:33:41;;;;;;;0.50;0.50;;;;;;;5.22;100.00;99352.38;4999555;28;20483;-76
2022/12/22 06:36:07;;;;;;;0.40;0.40;;;;;;;5.20;100.00;99349.06;5016193;28;20033;-76
2022/12/22 06:38:33;;;;;;;0.50;0.50;;;;;;;5.24;100.00;99358.38;5032495;28;20041;-76
2022/12/22 06:41:00;;;;;;;0.40;0.40;;;;;;;5.20;100.00;99357.03;5000040;28;20104;-75
2022/12/22 06:43:25;;;;;;;0.40;0.40;;;;;;;5.21;100.00;99361.38;4999314;28;20026;-76
2022/12/22 06:45:51;;;;;;;0.50;0.50;;;;;;;5.26;100.00;99361.66;5016047;28;20091;-75
2022/12/22 06:48:17;;;;;;;0.40;0.40;;;;;;;5.23;100.00;99353.19;4999406;28;20476;-75
2022/12/22 06:50:43;;;;;;;0.50;0.50;;;;;;;5.21;100.00;99353.41;4999664;28;20068;-76
2022/12/22 06:53:09;;;;;;;0.60;0.60;;;;;;;5.21;100.00;99350.72;5015466;28;20491;-76
2022/12/22 06:55:36;;;;;;;0.50;0.50;;;;;;;5.19;100.00;99358.06;4999546;28;20045;-75
2022/12/22 06:58:01;;;;;;;0.50;0.50;;;;;;;5.22;100.00;99371.03;5015666;28;20091;-75
2022/12/22 07:00:27;;;;;;;0.40;0.40;;;;;;;5.21;100.00;99377.38;5015770;28;20025;-75
2022/12/22 07:02:53;;;;;;;0.50;0.50;;;;;;;5.26;100.00;99387.50;5015267;28;20414;-75
2022/12/22 07:05:19;;;;;;;0.77;0.63;;;;;;;5.19;100.00;99394.53;5015906;28;20029;-75
2022/12/22 07:07:44;;;;;;;0.50;0.50;;;;;;;5.17;100.00;99388.56;4999508;28;20468;-76
2022/12/22 07:10:11;;;;;;;0.55;0.55;;;;;;;5.14;100.00;99387.06;4999573;28;20038;-75
2022/12/22 07:12:37;;;;;;;0.50;0.50;;;;;;;5.18;100.00;99398.19;5031908;28;20033;-76
2022/12/22 07:15:03;;;;;;;0.50;0.50;;;;;;;5.20;100.00;99397.00;4999227;28;20037;-76
2022/12/22 07:17:28;;;;;;;0.40;0.40;;;;;;;5.19;100.00;99405.19;5031676;28;20035;-75
2022/12/22 07:19:54;;;;;;;0.50;0.50;;;;;;;5.23;100.00;99402.00;5015560;28;20041;-76
2022/12/22 07:22:20;;;;;;;0.47;0.47;;;;;;;5.24;100.00;99398.34;4999199;28;20030;-75
2022/12/22 07:24:45;;;;;;;0.50;0.50;;;;;;;5.27;100.00;99394.50;4998819;28;20439;-76
2022/12/22 07:27:11;;;;;;;0.40;0.40;;;;;;;5.31;100.00;99405.63;4999267;28;20032;-76
2022/12/22 07:29:39;;;;;;;0.40;0.40;;;;;;;5.34;100.00;99410.59;5000090;28;20033;-75
2022/12/22 07:32:05;;;;;;;0.40;0.40;;;;;;;5.36;100.00;99421.94;5035402;28;20545;-73
2022/12/22 07:34:31;;;;;;;0.50;0.50;;;;;;;5.34;100.00;99419.41;5019227;28;20034;-76
2022/12/22 07:36:57;;;;;;;0.43;0.43;;;;;;;5.35;100.00;99429.09;5002968;28;20026;-75
2022/12/22 07:39:22;;;;;;;0.40;0.40;;;;;;;5.35;100.00;99433.59;5035582;28;20081;-75
2022/12/22 07:44:32;;;;;;;0.50;0.50;;;;;;;5.34;100.00;99430.09;5035182;28;20107;-75
2022/12/22 07:46:58;;;;;;;0.45;0.45;;;;;;;5.31;100.00;99425.09;5002876;28;20475;-75
2022/12/22 07:52:07;;;;;;;0.40;0.40;;;;;;;5.25;100.00;99439.97;5021521;28;20041;-75
2022/12/22 07:54:33;;;;;;;0.40;0.40;;;;;;;5.25;100.00;99452.47;5019143;28;20045;-75
2022/12/22 07:56:59;;;;;;;0.57;0.57;;;;;;;5.21;100.00;99451.13;5018592;28;20060;-75
2022/12/22 07:59:25;;;;;;;0.80;0.80;;;;;;;5.13;100.00;99449.34;5018038;28;20450;-75
2022/12/22 08:01:54;;;;;;;0.50;0.50;;;;;;;5.15;100.00;99451.84;5002530;28;20529;-75
2022/12/22 08:04:21;;;;;;;0.40;0.40;;;;;;;5.05;100.00;99465.34;5018501;28;20468;-75
2022/12/22 08:06:46;;;;;;;0.50;0.50;;;;;;;4.82;100.00;99463.44;5035294;28;20041;-75
2022/12/22 08:09:15;;;;;;;0.43;0.43;;;;;;;4.61;100.00;99463.16;5034622;28;20091;-76
2022/12/22 08:11:41;;;;;;;0.50;0.50;;;;;;;4.36;100.00;99470.31;5018853;28;20046;-74
2022/12/22 08:14:06;;;;;;;0.50;0.50;;;;;;;4.14;100.00;99483.28;5018331;28;20064;-75
2022/12/22 08:16:32;;;;;;;2.03;1.95;;;;;;;4.00;100.00;99491.13;5001898;28;20065;-76
2022/12/22 08:18:58;;;;;;;0.50;0.50;;;;;;;3.92;100.00;99491.94;5002067;28;20045;-74
2022/12/22 08:21:26;;;;;;;0.40;0.40;;;;;;;3.93;100.00;99505.03;5001815;28;20033;-75
2022/12/22 08:23:52;;;;;;;0.50;0.50;;;;;;;3.93;100.00;99509.53;5017785;28;20472;-75
2022/12/22 08:26:31;;;;;;;0.50;0.50;;;;;;;4.02;100.00;99499.75;5002099;28;20048;-75
2022/12/22 08:29:07;;;;;;;0.85;0.85;;;;;;;4.00;100.00;99483.97;5002188;28;20044;-74
2022/12/22 08:31:33;;;;;;;0.40;0.40;;;;;;;4.03;100.00;99496.94;5002078;28;20112;-75
2022/12/22 08:34:01;;;;;;;0.60;0.60;;;;;;;3.98;100.00;99499.25;5001799;28;20148;-75
2022/12/22 08:36:28;;;;;;;0.40;0.40;;;;;;;3.91;100.00;99501.72;5017828;28;20034;-75
2022/12/22 08:38:55;;;;;;;0.60;0.60;;;;;;;3.79;100.00;99497.72;5034358;28;20037;-74
2022/12/22 08:41:48;;;;;;;0.40;0.40;;;;;;;3.47;100.00;99493.97;5000992;28;20042;-76
2022/12/22 08:44:06;;;;;;;0.50;0.50;;;;;;;3.30;100.00;99493.06;5033102;28;20029;-76
2022/12/22 08:46:32;;;;;;;0.40;0.40;;;;;;;3.22;100.00;99494.88;5050370;28;20025;-75
2022/12/22 08:48:58;;;;;;;0.43;0.43;;;;;;;3.15;100.00;99497.34;5034069;28;20037;-75
2022/12/22 08:51:24;;;;;;;0.45;0.45;;;;;;;3.11;100.00;99493.31;5017658;28;20064;-75
2022/12/22 08:53:52;;;;;;;0.50;0.50;;;;;;;3.07;100.00;99498.13;5001274;28;20034;-75
2022/12/22 08:56:18;;;;;;;0.40;0.40;;;;;;;3.04;100.00;99494.94;5001540;28;20041;-76
2022/12/22 08:58:44;;;;;;;0.60;0.60;;;;;;;3.17;100.00;99518.41;5001592;28;20033;-75
2022/12/22 09:01:20;;;;;;;0.40;0.40;;;;;;;3.25;100.00;99529.09;5033857;28;20052;-75
2022/12/22 09:03:50;;;;;;;0.50;0.50;;;;;;;3.25;100.00;99542.34;5033844;28;20025;-75
2022/12/22 09:06:20;;;;;;;0.50;0.50;;;;;;;3.26;100.00;99552.00;5034073;28;20037;-75
2022/12/22 09:08:47;;;;;;;0.40;0.40;;;;;;;3.32;100.00;99559.34;5017354;28;20116;-76
2022/12/22 09:11:14;;;;;;;0.40;0.40;;;;;;;3.48;100.00;99570.03;5000515;28;20091;-76
2022/12/22 09:13:39;;;;;;;0.50;0.50;;;;;;;3.65;100.00;99580.75;5033639;28;20541;-75
2022/12/22 09:16:06;;;;;;;0.50;0.50;;;;;;;3.82;100.00;99579.81;5001036;28;20022;-76
2022/12/22 09:18:32;;;;;;;0.50;0.50;;;;;;;3.93;100.00;99578.69;5016885;28;20083;-75
2022/12/22 09:20:58;;;;;;;0.50;0.50;;;;;;;4.08;100.00;99585.06;5033610;28;20033;-74
2022/12/22 09:23:24;;;;;;;0.50;0.50;;;;;;;4.18;100.00;99582.22;5000397;28;20030;-75
2022/12/22 09:25:52;;;;;;;0.50;0.50;;;;;;;4.33;100.00;99596.56;5033414;28;20045;-75
2022/12/22 09:28:18;;;;;;;0.50;0.50;;;;;;;4.49;100.00;99602.91;5033416;28;20029;-76
2022/12/22 09:30:51;;;;;;;0.50;0.50;;;;;;;4.52;100.00;99599.91;5000763;28;20437;-75
2022/12/22 09:33:17;;;;;;;0.60;0.60;;;;;;;4.68;100.00;99615.06;5033751;28;20033;-74
2022/12/22 09:35:43;;;;;;;0.50;0.50;;;;;;;4.75;100.00;99626.72;5016444;28;20432;-76
2022/12/22 09:38:09;;;;;;;0.50;0.50;;;;;;;4.77;100.00;99625.56;5000391;28;20033;-76
2022/12/22 09:40:35;;;;;;;0.70;0.70;;;;;;;4.84;100.00;99631.91;5017081;28;20056;-77
2022/12/22 09:43:02;;;;;;;0.60;0.60;;;;;;;4.77;100.00;99614.09;5000514;28;20072;-76
2022/12/22 09:45:28;;;;;;;0.50;0.50;;;;;;;4.84;100.00;99626.56;5016913;28;20044;-77
2022/12/22 09:47:54;;;;;;;1.00;0.93;;;;;;;4.83;100.00;99642.69;5016563;28;20038;-76
2022/12/22 09:50:22;;;;;;;0.40;0.40;;;;;;;4.79;100.00;99628.91;5000525;28;20171;-77
2022/12/22 09:53:00;;;;;;;0.40;0.40;;;;;;;4.79;100.00;99628.91;5033364;28;20064;-76
2022/12/22 09:55:25;;;;;;;0.50;0.50;;;;;;;4.81;100.00;99648.19;5017055;28;20437;-76
2022/12/22 09:57:54;;;;;;;0.50;0.50;;;;;;;4.91;100.00;99660.53;5016869;28;20483;-77
2022/12/22 10:00:23;;;;;;;0.40;0.40;;;;;;;5.01;100.00;99659.34;5033175;28;20171;-76
2022/12/22 10:02:53;;;;;;;0.40;0.40;;;;;;;5.12;100.00;99655.50;5016572;28;20052;-76
2022/12/22 10:05:37;;;;;;;0.50;0.50;;;;;;;4.99;100.00;99628.53;5016723;28;20037;-77
2022/12/22 10:08:15;;;;;;;0.50;0.50;;;;;;;5.24;100.00;99664.84;5032779;28;20048;-76
2022/12/22 10:10:41;;;;;;;0.50;0.50;;;;;;;5.24;100.00;99667.50;5032619;28;20025;-76
2022/12/22 10:13:18;;;;;;;0.55;0.55;;;;;;;5.31;100.00;99654.31;5016273;28;20391;-77
2022/12/22 10:15:44;;;;;;;0.50;0.50;;;;;;;5.51;100.00;99654.81;5049062;28;20083;-76
2022/12/22 10:18:17;;;;;;;0.60;0.60;;;;;;;5.62;100.00;99650.94;5016375;28;20060;-76
2022/12/22 10:20:45;;;;;;;0.50;0.50;;;;;;;5.79;100.00;99641.03;5000124;28;20037;-77
2022/12/22 10:23:20;;;;;;;0.40;0.40;;;;;;;5.98;100.00;99639.81;4999940;28;20030;-77
2022/12/22 10:25:55;;;;;;;0.50;0.50;;;;;;;5.88;100.00;99650.69;5016453;28;20037;-76
2022/12/22 10:28:48;;;;;;;0.50;0.50;;;;;;;5.60;100.00;99643.09;5032682;28;20468;-77
2022/12/22 10:31:21;;;;;;;0.60;0.60;;;;;;;5.49;100.00;99640.81;4999697;28;20510;-76
2022/12/22 10:33:49;;;;;;;0.50;0.50;;;;;;;5.47;100.00;99653.47;4999656;28;20542;-77
2022/12/22 10:36:23;;;;;;;0.50;0.50;;;;;;;5.42;100.00;99637.97;5016221;28;20124;-76
2022/12/22 10:39:09;;;;;;;0.50;0.50;;;;;;;5.48;100.00;99644.47;5032249;28;20037;-76
2022/12/22 10:41:43;;;;;;;0.60;0.60;;;;;;;6.77;100.00;99657.41;5048931;28;20037;-76
2022/12/22 10:44:18;;;;;;;0.60;0.60;;;;;;;7.79;100.00;99670.34;5032161;28;20030;-77
2022/12/22 10:47:14;;;;;;;0.40;0.40;;;;;;;7.59;100.00;99691.44;5032428;28;20037;-76
2022/12/22 10:49:43;;;;;;;0.50;0.50;;;;;;;8.02;100.00;99688.97;5027937;28;20044;-77
2022/12/22 10:52:21;;;;;;;0.50;0.50;;;;;;;8.53;100.00;99696.22;5031951;28;20486;-77
2022/12/22 10:54:47;;;;;;;0.50;0.50;;;;;;;8.73;100.00;99699.97;5032152;28;20128;-76
2022/12/22 10:57:12;;;;;;;0.50;0.50;;;;;;;8.19;100.00;99697.63;5031928;28;20501;-76
2022/12/22 10:59:57;;;;;;;0.70;0.70;;;;;;;8.51;100.00;99687.53;5015986;28;20032;-76
2022/12/22 11:02:23;;;;;;;0.60;0.60;;;;;;;9.28;100.00;99675.31;5032324;28;20491;-76
2022/12/22 11:04:49;;;;;;;0.60;0.60;;;;;;;9.18;100.00;99695.25;5018874;28;20033;-77
2022/12/22 11:07:16;;;;;;;0.50;0.50;;;;;;;8.29;100.00;99698.19;5036364;28;20164;-77
2022/12/22 11:09:41;;;;;;;0.50;0.50;;;;;;;7.46;100.00;99702.78;5003069;28;20041;-74
2022/12/22 11:12:07;;;;;;;0.57;0.55;;;;;;;7.04;100.00;99711.31;5035559;28;20468;-73
2022/12/22 11:15:17;;;;;;;1.50;1.50;;;;;;;6.80;100.00;99702.47;5035981;28;20048;-73
2022/12/22 11:18:04;;;;;;;0.50;0.50;;;;;;;6.41;100.00;99699.88;5028185;28;20053;-73
2022/12/22 11:20:39;;;;;;;0.50;0.50;;;;;;;6.05;100.00;99695.00;5037164;28;20053;-73
2022/12/22 11:23:39;;;;;;;0.55;0.55;;;;;;;5.89;100.00;99689.69;5036447;28;20079;-74
2022/12/22 11:26:13;;;;;;;0.60;0.60;;;;;;;5.89;100.00;99703.03;5028019;28;20403;-73
2022/12/22 11:28:54;;;;;;;0.50;0.50;;;;;;;6.02;100.00;99711.38;5018875;28;20032;-73
2022/12/22 11:32:06;;;;;;;0.50;0.50;;;;;;;6.34;100.00;99714.91;5019208;28;20417;-73
2022/12/22 11:34:42;;;;;;;0.55;0.55;;;;;;;6.72;100.00;99717.69;5007747;28;20045;-73
2022/12/22 11:37:35;;;;;;;0.60;0.60;;;;;;;7.41;100.00;99705.16;5019297;28;20035;-73
2022/12/22 11:40:32;;;;;;;0.40;0.40;;;;;;;8.15;100.00;99691.00;5019503;28;20052;-73
2022/12/22 11:43:23;;;;;;;0.50;0.50;;;;;;;8.26;100.00;99695.88;5002437;28;20091;-73
2022/12/22 11:46:20;;;;;;;0.55;0.55;;;;;;;8.09;100.00;99711.31;5035375;28;20057;-73
2022/12/22 11:49:02;;;;;;;0.40;0.40;;;;;;;7.85;100.00;99703.56;5035292;28;20131;-73
2022/12/22 11:51:40;;;;;;;0.52;0.52;;;;;;;7.69;100.00;99704.56;5034999;28;20124;-74
2022/12/22 11:54:43;;;;;;;0.50;0.50;;;;;;;7.48;100.00;99700.72;5036513;28;20040;-73
2022/12/22 11:57:33;;;;;;;0.63;0.63;;;;;;;7.22;100.00;99674.44;5035063;28;20045;-74
2022/12/22 12:00:08;;;;;;;0.50;0.50;;;;;;;6.97;100.00;99654.25;5035411;28;20128;-75
2022/12/22 12:03:11;;;;;;;0.50;0.50;;;;;;;7.08;100.00;99682.38;5018344;28;20136;-74
2022/12/22 12:06:06;;;;;;;0.60;0.60;;;;;;;8.28;100.00;99668.91;5034770;28;20395;-74
2022/12/22 12:08:49;;;;;;;0.60;0.60;;;;;;;9.28;100.00;99672.63;5034659;28;20606;-73
2022/12/22 12:11:37;;;;;;;0.50;0.50;;;;;;;9.50;100.00;99693.03;5035746;28;20025;-74
2022/12/22 12:14:36;;;;;;;0.60;0.60;;;;;;;9.17;100.00;99698.13;5034632;28;20034;-74
2022/12/22 12:17:07;;;;;;;0.68;0.68;;;;;;;9.94;100.00;99709.84;5035398;28;20033;-74
2022/12/22 12:19:51;;;;;;;0.52;0.52;;;;;;;9.66;100.00;99703.47;5018493;28;20133;-74
2022/12/22 12:22:26;;;;;;;0.60;0.60;;;;;;;8.68;100.00;99696.16;5002041;28;20120;-74
2022/12/22 12:25:00;;;;;;;0.50;0.50;;;;;;;8.82;100.00;99689.94;5018107;28;20049;-73
2022/12/22 12:27:48;;;;;;;0.60;0.60;;;;;;;8.83;100.00;99706.84;5002196;28;20125;-74
2022/12/22 12:30:16;;;;;;;0.60;0.60;;;;;;;8.71;100.00;99693.13;5035578;28;20025;-74
2022/12/22 12:33:13;;;;;;;0.60;0.60;;;;;;;8.85;100.00;99694.09;5001994;28;20037;-75
2022/12/22 12:35:50;;;;;;;0.65;0.65;;;;;;;9.60;100.00;99701.56;5047751;28;20061;-74
2022/12/22 12:38:19;;;;;;;0.60;0.60;;;;;;;9.63;100.00;99693.13;5018182;28;20040;-74
2022/12/22 12:41:22;;;;;;;0.70;0.70;;;;;;;9.07;100.00;99702.97;5033765;28;20090;-74
2022/12/22 12:43:49;;;;;;;0.40;0.40;;;;;;;8.72;100.00;99700.97;5011178;28;20087;-73
2022/12/22 12:46:43;;;;;;;0.60;0.60;;;;;;;8.53;100.00;99709.63;5001573;28;20034;-74
2022/12/22 12:49:34;;;;;;;0.63;0.63;;;;;;;8.82;100.00;99708.72;5034774;28;20021;-74
2022/12/22 12:52:03;;;;;;;0.60;0.60;;;;;;;9.93;100.00;99702.81;5035347;28;20112;-74
2022/12/22 12:54:29;;;;;;;0.70;0.70;;;;;;;10.73;100.00;99704.03;5001396;28;20037;-74
2022/12/22 12:57:30;;;;;;;0.60;0.60;;;;;;;11.43;100.00;99697.31;5035319;28;20030;-74
2022/12/22 12:59:59;;;;;;;0.60;0.60;;;;;;;12.25;100.00;99692.41;5022637;28;20403;-73
2022/12/22 13:02:33;;;;;;;0.77;0.77;;;;;;;12.69;100.00;99688.06;5017725;28;20038;-73
2022/12/22 13:05:11;;;;;;;0.60;0.60;;;;;;;12.72;100.00;99694.88;5017694;28;20037;-74
2022/12/22 13:08:14;;;;;;;0.60;0.60;;;;;;;11.56;100.00;99693.75;5035040;28;20033;-74
2022/12/22 13:10:42;;;;;;;0.80;0.80;;;;;;;12.44;100.00;99695.25;5034249;28;20021;-74
2022/12/22 13:13:20;;;;;;;0.60;0.60;;;;;;;13.94;94.77;99675.66;5033862;28;20041;-74
2022/12/22 13:15:59;;;;;;;0.70;0.70;;;;;;;14.02;92.55;99672.66;5033680;28;20088;-74
2022/12/22 13:18:25;;;;;;;0.70;0.70;;;;;;;12.80;94.43;99694.63;5017498;28;20033;-74
2022/12/22 13:21:02;;;;;;;0.80;0.80;;;;;;;12.56;95.44;99688.13;5034637;28;20044;-74
2022/12/22 13:23:39;;;;;;;0.90;0.90;;;;;;;15.25;85.29;99690.41;5033835;28;20109;-74
2022/12/22 13:26:08;;;;;;;0.70;0.70;;;;;;;16.70;83.29;99683.34;5033203;28;20128;-74
2022/12/22 13:28:35;;;;;;;0.80;0.80;;;;;;;17.76;80.35;99681.91;5033559;28;20029;-74
2022/12/22 13:31:20;;;;;;;0.85;0.85;;;;;;;17.96;78.03;99668.59;5000915;28;20030;-74
2022/12/22 13:33:48;;;;;;;1.70;1.60;;;;;;;17.84;78.70;99683.41;5017032;28;20379;-74
2022/12/22 13:36:19;;;;;;;1.10;1.10;;;;;;;17.86;77.71;99676.63;5034351;28;20120;-74
2022/12/22 13:38:45;;;;;;;1.48;1.35;;;;;;;16.31;79.59;99685.00;5000857;28;20048;-74
2022/12/22 13:41:20;;;;;;;0.75;0.75;;;;;;;14.67;84.86;99689.16;5016815;28;20029;-74
2022/12/22 13:43:52;;;;;;;1.05;1.05;;;;;;;15.40;80.74;99692.69;5016657;28;20144;-74
2022/12/22 13:46:18;;;;;;;1.13;1.13;;;;;;;16.00;78.80;99697.06;5016867;28;20030;-73
2022/12/22 13:48:48;;;;;;;1.25;1.15;;;;;;;14.89;82.90;99694.91;5017043;28;20034;-73
2022/12/22 13:51:23;;;;;;;1.35;1.25;;;;;;;15.15;82.93;99706.41;5032877;28;20184;-74
2022/12/22 13:53:58;;;;;;;2.53;1.38;;;;;;;15.82;82.74;99701.56;5000268;28;20033;-74
2022/12/22 13:56:36;;;;;;;1.73;1.45;;;;;;;17.06;77.72;99697.59;5016900;28;20033;-73
2022/12/22 13:59:03;;;;;;;2.90;1.90;;;;;;;17.95;77.40;99693.34;5017094;28;20045;-73
2022/12/22 14:01:29;;;;;;;5.57;2.00;;;;;;;17.24;78.33;99672.09;5016158;28;20459;-73
2022/12/22 14:04:00;;;;;;;3.33;1.77;;;;;;;15.79;84.32;99688.47;5032848;28;20116;-74
2022/12/22 14:06:38;;;;;;;4.07;2.10;;;;;;;15.49;86.75;99690.44;5032852;28;20033;-74
2022/12/22 14:09:16;;;;;;;4.15;2.15;;;;;;;13.97;92.17;99692.28;5016409;28;20025;-74
2022/12/22 14:12:04;;;;;;;4.93;2.58;;;;;;;12.53;98.57;99718.22;5032757;28;20029;-75
2022/12/22 14:14:34;;;;;;;5.22;2.75;;;;;;;11.90;100.00;99726.91;5018618;28;20060;-73
2022/12/22 14:17:00;;;;;;;7.68;2.42;;;;;;;11.04;100.00;99732.25;5032607;28;20499;-73
2022/12/22 14:19:30;;;;;;;3.05;2.53;;;;;;;10.33;100.00;99730.75;5015938;28;20025;-73
2022/12/22 14:22:08;;;;;;;4.53;2.47;;;;;;;9.81;100.00;99724.81;5016106;28;20042;-74
2022/12/22 14:24:41;;;;;;;3.58;2.05;;;;;;;9.25;100.00;99733.69;4999618;28;20392;-73
2022/12/22 14:27:17;;;;;;;4.93;2.42;;;;;;;8.84;100.00;99744.22;4999766;28;20025;-73
2022/12/22 14:29:43;;;;;;;4.05;2.10;;;;;;;8.56;100.00;99738.72;5032359;28;20103;-73
2022/12/22 14:32:11;;;;;;;4.70;2.88;;;;;;;8.35;100.00;99736.78;5015837;28;20080;-73
2022/12/22 14:34:37;;;;;;;5.55;2.60;;;;;;;8.16;100.00;99732.81;5048609;28;20055;-73
2022/12/22 14:37:03;;;;;;;5.72;2.60;;;;;;;8.01;100.00;99721.28;5015669;28;20449;-74
2022/12/22 14:39:30;;;;;;;14.82;7.53;;;;;;;8.09;100.00;99743.44;5015356;28;20036;-73
2022/12/22 14:42:00;;;;;;;20.10;11.70;;;;;;;8.08;100.00;99740.94;5032489;28;20034;-74
2022/12/22 14:44:28;;;;;;;19.50;9.82;;;;;;;8.03;100.00;99749.53;4999499;28;20372;-73
2022/12/22 14:47:19;;;;;;;14.18;7.97;;;;;;;7.93;100.00;99735.59;5015890;28;20515;-73
2022/12/22 14:49:54;;;;;;;11.77;5.63;;;;;;;7.96;100.00;99732.53;5015907;28;20049;-74
2022/12/22 14:52:44;;;;;;;9.07;5.30;;;;;;;8.07;100.00;99729.41;5031859;28;20025;-73
2022/12/22 14:55:32;;;;;;;10.32;5.50;;;;;;;8.28;100.00;99742.06;5032209;28;20606;-73
2022/12/22 14:58:09;;;;;;;8.23;4.43;;;;;;;9.21;100.00;99723.53;5031861;28;20076;-73
2022/12/22 15:00:39;;;;;;;7.78;3.45;;;;;;;10.38;100.00;99751.66;5000917;28;20030;-73
2022/12/22 15:03:23;;;;;;;5.78;3.45;;;;;;;10.78;100.00;99760.72;4999594;28;20083;-73
2022/12/22 15:05:50;;;;;;;7.45;4.28;;;;;;;11.85;100.00;99751.75;5031828;28;20022;-74
2022/12/22 15:08:36;;;;;;;4.78;3.03;;;;;;;13.18;100.00;99761.25;5015492;28;20095;-74
2022/12/22 15:11:02;;;;;;;7.63;3.08;;;;;;;14.08;96.38;99759.09;5031773;28;20043;-74
2022/12/22 15:13:29;;;;;;;8.60;3.63;;;;;;;14.49;93.43;99757.59;4999341;28;20092;-74
2022/12/22 15:15:54;;;;;;;7.60;3.17;;;;;;;13.72;93.75;99761.72;5015716;28;20033;-73
2022/12/22 15:18:24;;;;;;;7.10;2.97;;;;;;;11.44;100.00;99777.00;4999274;28;20529;-73
2022/12/22 15:20:50;;;;;;;8.57;3.67;;;;;;;9.80;100.00;99781.44;5032126;28;20025;-73
2022/12/22 15:23:15;;;;;;;7.50;3.03;;;;;;;8.74;100.00;99768.63;5015140;28;20043;-73
2022/12/22 15:25:41;;;;;;;6.32;3.55;;;;;;;8.01;100.00;99786.34;5015600;28;20038;-73
2022/12/22 15:28:07;;;;;;;7.93;5.20;;;;;;;7.38;100.00;99772.41;4999254;28;20034;-74
2022/12/22 15:30:33;;;;;;;10.15;5.07;;;;;;;6.93;100.00;99784.72;4999048;28;20037;-74